Time;durP1;ratioP1;P1;durP2;ratioP2;P2;SDS_P1;SDS_P2;PMS_P1;PMS_P2;Temp;Humidity;BMP_temperature;BMP_pressure;BME280_temperature;BME280_humidity;BME280_pressure;Samples;Min_cycle;Max_cycle;Signal;HPM_P1;HPM_P2
2023/09/27 00:00:37;;;;;;;25.73;20.13;;;14.90;99.90;;;;;;5041577;28;20056;-70
2023/09/27 00:03:04;;;;;;;24.00;19.83;;;14.90;99.90;;;;;;5023491;28;227054;-71
2023/09/27 00:05:30;;;;;;;27.08;20.02;;;14.80;99.90;;;;;;5069963;28;20593;-69
2023/09/27 00:07:58;;;;;;;23.08;18.95;;;14.90;99.90;;;;;;5038769;28;20048;-70
2023/09/27 00:10:24;;;;;;;26.52;19.65;;;14.90;99.90;;;;;;5047904;28;91593;-70
2023/09/27 00:12:50;;;;;;;24.85;19.83;;;14.80;99.90;;;;;;5030888;28;20052;-69
2023/09/27 00:15:16;;;;;;;25.50;20.40;;;14.80;99.90;;;;;;5047743;28;31532;-68
2023/09/27 00:17:43;;;;;;;22.65;19.02;;;14.80;99.90;;;;;;5049942;28;20053;-69
2023/09/27 00:20:15;;;;;;;25.92;20.95;;;14.80;99.90;;;;;;5039762;28;40168;-70
2023/09/27 00:22:45;;;;;;;25.05;20.05;;;14.80;99.90;;;;;;5056222;28;20071;-71
2023/09/27 00:25:12;;;;;;;30.33;21.55;;;14.80;99.90;;;;;;5030860;28;57089;-71
2023/09/27 00:27:38;;;;;;;26.83;21.95;;;14.80;99.90;;;;;;5062928;28;20065;-70
2023/09/27 00:30:07;;;;;;;23.98;20.52;;;14.80;99.90;;;;;;5005235;28;20067;-69
2023/09/27 00:32:33;;;;;;;25.65;21.52;;;14.80;99.90;;;;;;5064960;28;20063;-70
2023/09/27 00:35:01;;;;;;;24.27;21.65;;;14.80;99.90;;;;;;5001724;28;20120;-70
2023/09/27 00:37:27;;;;;;;25.88;22.02;;;14.80;99.90;;;;;;5058883;28;20052;-71
2023/09/27 00:39:55;;;;;;;27.88;21.75;;;14.80;99.90;;;;;;5008217;28;128849;-71
2023/09/27 00:42:23;;;;;;;25.52;20.88;;;14.80;99.90;;;;;;5060221;28;20055;-70
2023/09/27 00:44:50;;;;;;;30.20;22.15;;;14.70;99.90;;;;;;5037406;28;20174;-70
2023/09/27 00:47:16;;;;;;;25.77;20.58;;;14.70;99.90;;;;;;5057081;28;20045;-69
2023/09/27 00:49:44;;;;;;;25.65;21.80;;;14.70;99.90;;;;;;5025492;28;213193;-70
2023/09/27 00:52:12;;;;;;;26.55;21.60;;;14.70;99.90;;;;;;5063620;28;20059;-69
2023/09/27 00:54:38;;;;;;;25.02;19.73;;;14.70;99.90;;;;;;4996905;28;129962;-70
2023/09/27 00:57:05;;;;;;;23.00;20.15;;;14.60;99.90;;;;;;5058027;28;20055;-70
2023/09/27 00:59:31;;;;;;;25.38;20.98;;;14.60;99.90;;;;;;5010318;28;155161;-69
2023/09/27 01:01:58;;;;;;;26.40;20.52;;;14.50;99.90;;;;;;5061456;28;20068;-69
2023/09/27 01:04:24;;;;;;;25.95;21.15;;;14.50;99.90;;;;;;5020788;28;152930;-70
2023/09/27 01:06:50;;;;;;;27.48;21.13;;;14.50;99.90;;;;;;5061483;28;20553;-70
2023/09/27 01:09:17;;;;;;;25.15;20.13;;;14.50;99.90;;;;;;5014838;28;96115;-70
2023/09/27 01:11:46;;;;;;;27.83;21.38;;;14.40;99.90;;;;;;5055908;28;20052;-70
2023/09/27 01:14:13;;;;;;;25.17;21.63;;;14.40;99.90;;;;;;5033372;28;20063;-70
2023/09/27 01:16:39;;;;;;;24.67;20.58;;;14.40;99.90;;;;;;5059890;28;20044;-70
2023/09/27 01:19:06;;;;;;;25.08;20.27;;;14.30;99.90;;;;;;5016118;28;250825;-70
2023/09/27 01:21:32;;;;;;;25.63;20.02;;;14.30;99.90;;;;;;5061653;28;20049;-70
2023/09/27 01:23:58;;;;;;;24.90;20.63;;;14.20;99.90;;;;;;5001765;28;79186;-70
2023/09/27 01:26:26;;;;;;;29.25;22.85;;;14.20;99.90;;;;;;5054844;28;20048;-70
2023/09/27 01:28:52;;;;;;;26.70;21.55;;;14.20;99.90;;;;;;5012446;28;106153;-70
2023/09/27 01:31:18;;;;;;;25.17;20.77;;;14.20;99.90;;;;;;5052578;28;20032;-69
2023/09/27 01:33:44;;;;;;;26.58;21.08;;;14.10;99.90;;;;;;5015095;28;20052;-68
2023/09/27 01:36:11;;;;;;;29.52;22.98;;;14.10;99.90;;;;;;5048201;28;20052;-68
2023/09/27 01:38:40;;;;;;;23.60;21.02;;;14.10;99.90;;;;;;5018995;28;20673;-69
2023/09/27 01:41:07;;;;;;;27.13;22.25;;;14.10;99.90;;;;;;5057554;28;20527;-69
2023/09/27 01:43:33;;;;;;;25.15;21.75;;;14.10;99.90;;;;;;5016844;28;188959;-68
2023/09/27 01:45:59;;;;;;;24.63;21.00;;;14.10;99.90;;;;;;5064892;28;20055;-69
2023/09/27 01:48:25;;;;;;;22.58;18.77;;;14.10;99.90;;;;;;5012544;28;169112;-69
2023/09/27 01:50:51;;;;;;;26.98;21.90;;;14.10;99.90;;;;;;5043025;28;20518;-69
2023/09/27 01:53:17;;;;;;;24.48;20.17;;;14.00;99.90;;;;;;4999545;28;187430;-69
2023/09/27 01:55:43;;;;;;;25.38;21.73;;;14.00;99.90;;;;;;5052885;28;20119;-69
2023/09/27 01:58:10;;;;;;;25.15;21.98;;;13.90;99.90;;;;;;5021663;28;20528;-69
2023/09/27 02:00:36;;;;;;;27.38;22.50;;;14.00;99.90;;;;;;5033113;28;20045;-68
2023/09/27 02:03:03;;;;;;;25.55;20.58;;;13.90;99.90;;;;;;5020319;28;20037;-68
2023/09/27 02:05:30;;;;;;;25.98;22.58;;;13.90;99.90;;;;;;5033158;28;20051;-69
2023/09/27 02:07:57;;;;;;;24.85;19.10;;;13.90;99.90;;;;;;5020497;28;20041;-69
2023/09/27 02:10:23;;;;;;;25.10;20.23;;;13.80;99.90;;;;;;5054252;28;20067;-70
2023/09/27 02:12:49;;;;;;;21.30;18.20;;;13.80;99.90;;;;;;5021756;28;20057;-70
2023/09/27 02:15:16;;;;;;;26.70;22.23;;;13.80;99.90;;;;;;5035985;28;20515;-70
2023/09/27 02:17:43;;;;;;;27.38;22.38;;;13.70;99.90;;;;;;5046968;28;20392;-69
2023/09/27 02:20:12;;;;;;;30.75;22.27;;;13.70;99.90;;;;;;5042119;28;264361;-69
2023/09/27 02:22:42;;;;;;;27.98;22.38;;;13.70;99.90;;;;;;5058952;28;20681;-68
2023/09/27 02:25:13;;;;;;;30.95;23.80;;;13.70;99.90;;;;;;5022606;28;20052;-69
2023/09/27 02:27:40;;;;;;;;;;;13.70;99.90;;;;;;5055275;28;21459;-69
2023/09/27 02:30:11;;;;;;;28.63;23.02;;;13.70;99.90;;;;;;5026972;28;19924;-70
2023/09/27 02:32:41;;;;;;;27.88;24.77;;;13.70;99.90;;;;;;5059471;28;20087;-69
2023/09/27 02:35:11;;;;;;;27.25;23.38;;;13.70;99.90;;;;;;4990369;28;20062;-69
2023/09/27 02:37:42;;;;;;;29.13;23.27;;;13.80;99.90;;;;;;5048227;28;20486;-68
2023/09/27 02:40:11;;;;;;;30.77;24.90;;;13.80;99.90;;;;;;5004483;28;20040;-70
2023/09/27 02:42:40;;;;;;;29.00;22.38;;;13.80;99.90;;;;;;5061533;28;20446;-69
2023/09/27 02:45:08;;;;;;;27.55;24.08;;;13.70;99.90;;;;;;5005355;28;20045;-69
2023/09/27 02:47:34;;;;;;;28.85;23.70;;;13.70;99.90;;;;;;5056705;28;20052;-67
2023/09/27 02:50:08;;;;;;;30.13;24.02;;;13.70;99.90;;;;;;5009988;28;20053;-69
2023/09/27 02:52:34;;;;;;;27.90;22.88;;;13.70;99.90;;;;;;5058465;28;20055;-68
2023/09/27 02:55:01;;;;;;;29.30;24.77;;;13.70;99.90;;;;;;4989422;28;69284;-69
2023/09/27 02:57:27;;;;;;;26.73;21.77;;;13.70;99.90;;;;;;5063456;28;20491;-69
2023/09/27 02:59:53;;;;;;;27.65;23.52;;;13.70;99.90;;;;;;5001701;28;20048;-69
2023/09/27 03:02:20;;;;;;;29.17;23.23;;;13.60;99.90;;;;;;5055436;28;20045;-69
2023/09/27 03:04:47;;;;;;;28.27;24.70;;;13.60;99.90;;;;;;4985492;28;20104;-69
2023/09/27 03:07:15;;;;;;;25.70;21.42;;;13.60;99.90;;;;;;5059554;28;20063;-69
2023/09/27 03:09:41;;;;;;;22.30;19.38;;;13.50;99.90;;;;;;5030441;28;20071;-70
2023/09/27 03:12:07;;;;;;;28.45;22.30;;;13.50;99.90;;;;;;5056580;28;20040;-70
2023/09/27 03:14:33;;;;;;;27.75;23.05;;;13.50;99.90;;;;;;5005941;28;20045;-69
2023/09/27 03:17:00;;;;;;;28.92;24.45;;;13.50;99.90;;;;;;5062401;28;20044;-69
2023/09/27 03:19:27;;;;;;;31.35;25.20;;;13.40;99.90;;;;;;5006973;28;20048;-69
2023/09/27 03:21:53;;;;;;;31.27;25.67;;;13.40;99.90;;;;;;5059806;28;20055;-69
2023/09/27 03:24:19;;;;;;;33.55;27.27;;;13.40;99.90;;;;;;5023066;28;20393;-69
2023/09/27 03:26:45;;;;;;;30.70;27.30;;;13.50;99.90;;;;;;5065209;28;20049;-69
2023/09/27 03:29:12;;;;;;;30.80;26.48;;;13.50;99.90;;;;;;5019539;28;20071;-69
2023/09/27 03:31:38;;;;;;;29.42;24.77;;;13.50;99.90;;;;;;5063078;28;20052;-70
2023/09/27 03:34:04;;;;;;;29.40;25.98;;;13.50;99.90;;;;;;5008130;28;20053;-69
2023/09/27 03:36:30;;;;;;;34.08;26.40;;;13.50;99.90;;;;;;5053177;28;20051;-67
2023/09/27 03:38:57;;;;;;;29.27;25.50;;;13.50;99.90;;;;;;5014140;28;20114;-69
2023/09/27 03:41:23;;;;;;;30.92;26.65;;;13.40;99.90;;;;;;5063054;28;20056;-69
2023/09/27 03:43:50;;;;;;;33.92;27.50;;;13.40;99.90;;;;;;5017369;28;20055;-69
2023/09/27 03:46:16;;;;;;;32.22;26.52;;;13.40;99.90;;;;;;5054158;28;20052;-69
2023/09/27 03:48:42;;;;;;;32.15;28.52;;;13.40;99.90;;;;;;5026341;28;20067;-69
2023/09/27 03:51:08;;;;;;;37.20;27.45;;;13.40;99.90;;;;;;5063503;28;20434;-68
2023/09/27 03:53:35;;;;;;;33.42;29.23;;;13.30;99.90;;;;;;4991805;28;191280;-69
2023/09/27 03:56:01;;;;;;;33.28;28.73;;;13.30;99.90;;;;;;5047673;28;20052;-69
2023/09/27 03:58:27;;;;;;;34.97;29.75;;;13.30;99.90;;;;;;5025064;28;21375;-69
2023/09/27 04:00:53;;;;;;;34.42;30.73;;;13.30;99.90;;;;;;5060168;28;20049;-68
2023/09/27 04:03:20;;;;;;;36.53;31.00;;;13.30;99.90;;;;;;5018886;28;20070;-68
2023/09/27 04:05:46;;;;;;;34.22;30.42;;;13.30;99.90;;;;;;5064506;28;20045;-70
2023/09/27 04:08:12;;;;;;;37.35;30.75;;;13.30;99.90;;;;;;5023171;28;20045;-68
2023/09/27 04:10:38;;;;;;;39.03;32.28;;;13.30;99.90;;;;;;5054783;28;20048;-69
2023/09/27 04:13:05;;;;;;;32.92;27.40;;;13.30;99.90;;;;;;5019179;28;20428;-69
2023/09/27 04:15:35;;;;;;;37.17;29.90;;;13.30;99.90;;;;;;5039481;28;20056;-68
2023/09/27 04:18:01;;;;;;;34.47;30.77;;;13.30;99.90;;;;;;5020909;28;20059;-69
2023/09/27 04:20:27;;;;;;;40.20;33.00;;;13.20;99.90;;;;;;5061270;28;20052;-69
2023/09/27 04:22:53;;;;;;;34.80;31.02;;;13.20;99.90;;;;;;5013782;28;20052;-68
2023/09/27 04:25:20;;;;;;;36.75;32.38;;;13.20;99.90;;;;;;5060437;28;20044;-68
2023/09/27 04:27:49;;;;;;;40.20;33.15;;;13.20;99.90;;;;;;5024239;28;20052;-68
2023/09/27 04:30:18;;;;;;;38.63;32.88;;;13.30;99.90;;;;;;5044977;28;20048;-69
2023/09/27 04:32:50;;;;;;;35.10;30.90;;;13.30;99.90;;;;;;5014443;28;20056;-67
2023/09/27 04:35:17;;;;;;;34.67;30.95;;;13.30;99.90;;;;;;5049067;28;20045;-70
2023/09/27 04:37:44;;;;;;;39.03;31.65;;;13.20;99.90;;;;;;5042714;28;20536;-68
2023/09/27 04:40:14;;;;;;;34.63;29.63;;;13.30;99.90;;;;;;5006054;28;20401;-69
2023/09/27 04:42:44;;;;;;;35.20;31.40;;;13.30;99.90;;;;;;5057074;28;20410;-68
2023/09/27 04:45:12;;;;;;;35.72;31.17;;;13.30;99.90;;;;;;5022278;28;20048;-67
2023/09/27 04:47:40;;;;;;;37.38;31.10;;;13.20;99.90;;;;;;5059297;28;20522;-68
2023/09/27 04:50:10;;;;;;;30.70;27.40;;;13.20;99.90;;;;;;4995542;28;20434;-69
2023/09/27 04:52:39;;;;;;;36.20;31.42;;;13.20;99.90;;;;;;5061635;28;20057;-68
2023/09/27 04:55:07;;;;;;;35.58;31.50;;;13.20;99.90;;;;;;4963807;28;20042;-68
2023/09/27 04:57:35;;;;;;;36.97;31.17;;;13.10;99.90;;;;;;5058387;28;20061;-68
2023/09/27 05:00:02;;;;;;;36.88;31.70;;;13.20;99.90;;;;;;5022989;28;20053;-68
2023/09/27 05:02:28;;;;;;;34.83;30.75;;;13.10;99.90;;;;;;5059965;28;20037;-69
2023/09/27 05:04:55;;;;;;;35.70;30.35;;;13.10;99.90;;;;;;4999815;28;20052;-69
2023/09/27 05:07:21;;;;;;;34.20;30.58;;;13.10;99.90;;;;;;5063008;28;20505;-69
2023/09/27 05:09:48;;;;;;;35.80;31.63;;;13.10;99.90;;;;;;5012513;28;21196;-69
2023/09/27 05:12:14;;;;;;;40.75;34.45;;;13.10;99.90;;;;;;5059634;28;20654;-69
2023/09/27 05:14:41;;;;;;;40.75;33.13;;;13.10;99.90;;;;;;5015499;28;20174;-69
2023/09/27 05:17:07;;;;;;;34.47;29.00;;;13.10;99.90;;;;;;5061309;28;20539;-69
2023/09/27 05:19:33;;;;;;;37.90;32.50;;;13.10;99.90;;;;;;4999612;28;20053;-68
2023/09/27 05:22:00;;;;;;;38.25;33.35;;;13.00;99.90;;;;;;5056754;28;20063;-69
2023/09/27 05:24:26;;;;;;;37.08;33.00;;;13.10;99.90;;;;;;5016376;28;20072;-69
2023/09/27 05:26:52;;;;;;;39.08;33.38;;;13.10;99.90;;;;;;5057796;28;20116;-68
2023/09/27 05:29:19;;;;;;;28.73;25.63;;;13.10;99.90;;;;;;4991955;28;20060;-71
2023/09/27 05:31:45;;;;;;;37.78;33.13;;;13.20;99.90;;;;;;5053465;28;20071;-69
2023/09/27 05:34:11;;;;;;;31.30;27.90;;;13.20;99.90;;;;;;5004265;28;20049;-69
2023/09/27 05:36:37;;;;;;;33.10;27.90;;;13.20;99.90;;;;;;5057029;28;20068;-69
2023/09/27 05:39:08;;;;;;;40.80;31.67;;;13.20;99.90;;;;;;5027939;28;20044;-69
2023/09/27 05:41:35;;;;;;;33.30;27.55;;;13.20;99.90;;;;;;5062855;28;20056;-69
2023/09/27 05:44:01;;;;;;;35.30;31.10;;;13.20;99.90;;;;;;5008176;28;20041;-68
2023/09/27 05:46:29;;;;;;;39.92;32.75;;;13.20;99.90;;;;;;5053422;28;20419;-69
2023/09/27 05:48:55;;;;;;;38.00;32.10;;;13.20;99.90;;;;;;5006556;28;20108;-68
2023/09/27 05:51:22;;;;;;;36.35;31.67;;;13.20;99.90;;;;;;5043760;28;20495;-69
2023/09/27 05:53:52;;;;;;;42.90;35.15;;;13.20;99.90;;;;;;5004885;28;112540;-70
2023/09/27 05:56:18;;;;;;;32.00;28.38;;;13.30;99.90;;;;;;5062132;28;20061;-70
2023/09/27 05:58:44;;;;;;;34.78;30.50;;;13.30;99.90;;;;;;5011081;28;20064;-70
2023/09/27 06:01:12;;;;;;;40.35;32.50;;;13.30;99.90;;;;;;5050371;28;20055;-70
2023/09/27 06:03:38;;;;;;;35.75;31.85;;;13.30;99.90;;;;;;5002921;28;20045;-71
2023/09/27 06:06:05;;;;;;;41.47;33.22;;;13.30;99.90;;;;;;5054967;28;20048;-68
2023/09/27 06:08:31;;;;;;;40.42;32.85;;;13.30;99.90;;;;;;5007417;28;20579;-70
2023/09/27 06:10:57;;;;;;;36.10;32.10;;;13.40;99.90;;;;;;5055212;28;20064;-70
2023/09/27 06:13:24;;;;;;;44.25;33.28;;;13.40;99.90;;;;;;5015059;28;20064;-71
2023/09/27 06:15:50;;;;;;;36.47;32.42;;;13.40;99.90;;;;;;5051807;28;20056;-71
2023/09/27 06:18:16;;;;;;;36.10;32.20;;;13.50;99.90;;;;;;5017062;28;21498;-71
2023/09/27 06:20:42;;;;;;;37.50;33.08;;;13.50;99.90;;;;;;5057123;28;20052;-70
2023/09/27 06:23:09;;;;;;;36.47;32.58;;;13.50;99.90;;;;;;5018881;28;20052;-71
2023/09/27 06:25:35;;;;;;;35.78;31.88;;;13.50;99.90;;;;;;5057222;28;20561;-70
2023/09/27 06:28:02;;;;;;;35.58;31.30;;;13.50;99.90;;;;;;5021767;28;20079;-71
2023/09/27 06:30:28;;;;;;;35.63;31.42;;;13.60;99.90;;;;;;5051940;28;20525;-70
2023/09/27 06:32:55;;;;;;;37.38;31.95;;;13.60;99.90;;;;;;5019443;28;20056;-71
2023/09/27 06:35:21;;;;;;;37.05;31.58;;;13.60;99.90;;;;;;5030159;28;20075;-70
2023/09/27 06:37:49;;;;;;;32.40;28.85;;;13.70;99.90;;;;;;5022083;28;20056;-70
2023/09/27 06:40:19;;;;;;;32.60;28.75;;;13.70;99.90;;;;;;5046368;28;20036;-70
2023/09/27 06:42:48;;;;;;;32.70;29.13;;;13.70;99.90;;;;;;5035554;28;20127;-68
2023/09/27 06:45:15;;;;;;;34.38;30.60;;;13.70;99.90;;;;;;5048318;28;20060;-69
2023/09/27 06:47:44;;;;;;;36.45;31.60;;;13.80;99.90;;;;;;5053296;28;20545;-69
2023/09/27 06:50:11;;;;;;;35.90;31.80;;;13.80;99.90;;;;;;4994832;28;20059;-71
2023/09/27 06:52:39;;;;;;;36.55;32.67;;;14.00;99.90;;;;;;5059724;28;20530;-69
2023/09/27 06:55:13;;;;;;;35.15;31.35;;;14.00;99.90;;;;;;4980661;28;20044;-71
2023/09/27 06:57:44;;;;;;;32.45;28.95;;;14.10;99.90;;;;;;5056784;28;20060;-69
2023/09/27 07:00:18;;;;;;;36.08;30.48;;;14.30;99.90;;;;;;4998012;28;20048;-70
2023/09/27 07:02:54;;;;;;;32.75;28.60;;;14.40;99.90;;;;;;5034054;28;20057;-69
2023/09/27 07:05:21;;;;;;;35.53;29.23;;;14.50;99.90;;;;;;5035429;28;20725;-70
2023/09/27 07:07:48;;;;;;;32.10;28.63;;;14.50;99.90;;;;;;5022636;28;20052;-69
2023/09/27 07:10:14;;;;;;;33.30;29.67;;;14.60;99.90;;;;;;5051741;28;20075;-71
2023/09/27 07:12:41;;;;;;;32.35;28.25;;;14.80;99.90;;;;;;5047486;28;20071;-71
2023/09/27 07:15:13;;;;;;;31.25;26.98;;;14.80;99.90;;;;;;5011607;28;20048;-71
2023/09/27 07:17:40;;;;;;;33.03;28.33;;;14.90;99.90;;;;;;5058632;28;20056;-70
2023/09/27 07:20:14;;;;;;;32.13;27.75;;;15.10;99.90;;;;;;5015058;28;20040;-69
2023/09/27 07:22:42;;;;;;;31.27;27.02;;;15.20;99.90;;;;;;5045751;28;20064;-71
2023/09/27 07:25:12;;;;;;;29.20;26.20;;;15.20;99.90;;;;;;5015009;28;20040;-70
2023/09/27 07:27:42;;;;;;;28.23;24.88;;;15.30;99.90;;;;;;5060608;28;20519;-71
2023/09/27 07:30:12;;;;;;;33.60;26.63;;;15.40;99.90;;;;;;4993620;28;20059;-70
2023/09/27 07:32:41;;;;;;;29.60;26.33;;;15.40;99.90;;;;;;5058384;28;20049;-71
2023/09/27 07:35:10;;;;;;;30.17;25.88;;;15.50;99.90;;;;;;4991704;28;20044;-71
2023/09/27 07:37:37;;;;;;;28.42;24.52;;;15.50;99.90;;;;;;5059885;28;20064;-71
2023/09/27 07:40:10;;;;;;;31.95;27.00;;;15.60;99.90;;;;;;4997764;28;20053;-71
2023/09/27 07:42:44;;;;;;;35.25;27.38;;;15.60;99.90;;;;;;5043353;28;20045;-70
2023/09/27 07:45:25;;;;;;;33.83;26.95;;;15.70;99.90;;;;;;4983868;28;20041;-70
2023/09/27 07:47:53;;;;;;;30.02;25.33;;;15.80;99.90;;;;;;5019565;28;20045;-70
2023/09/27 07:50:21;;;;;;;26.92;23.88;;;15.90;99.90;;;;;;5029002;28;20071;-71
2023/09/27 07:52:47;;;;;;;29.13;25.85;;;15.90;99.90;;;;;;5017422;28;20056;-70
2023/09/27 07:55:14;;;;;;;28.98;25.85;;;15.90;99.90;;;;;;5042114;28;121486;-70
2023/09/27 07:57:44;;;;;;;29.48;24.77;;;16.00;99.90;;;;;;5052416;28;20059;-70
2023/09/27 08:00:11;;;;;;;28.63;25.08;;;16.00;99.90;;;;;;5005031;28;275026;-70
2023/09/27 08:02:38;;;;;;;33.90;25.75;;;16.00;99.90;;;;;;5057371;28;20049;-70
2023/09/27 08:05:09;;;;;;;30.05;25.95;;;16.10;99.90;;;;;;5002358;28;20041;-69
2023/09/27 08:07:39;;;;;;;29.17;25.25;;;16.20;99.90;;;;;;5064602;28;20045;-71
2023/09/27 08:10:07;;;;;;;29.42;24.83;;;16.30;99.90;;;;;;4988064;28;20523;-70
2023/09/27 08:12:34;;;;;;;29.50;24.63;;;16.30;99.90;;;;;;5063158;28;20064;-71
2023/09/27 08:15:04;;;;;;;28.52;24.77;;;16.40;99.90;;;;;;5008549;28;20052;-71
2023/09/27 08:17:31;;;;;;;28.17;24.30;;;16.60;99.90;;;;;;5064245;28;20079;-71
2023/09/27 08:19:58;;;;;;;28.27;25.08;;;16.80;99.90;;;;;;5014470;28;20042;-71
2023/09/27 08:22:24;;;;;;;27.48;23.25;;;16.90;99.90;;;;;;5068176;28;20048;-70
2023/09/27 08:24:50;;;;;;;29.20;23.77;;;17.20;99.90;;;;;;5015892;28;20044;-71
2023/09/27 08:27:17;;;;;;;25.27;21.85;;;17.40;99.90;;;;;;5067204;28;20077;-71
2023/09/27 08:29:43;;;;;;;29.52;22.95;;;17.70;99.90;;;;;;5009162;28;20079;-70
2023/09/27 08:32:10;;;;;;;23.77;20.58;;;17.90;99.90;;;;;;5065600;28;20426;-70
2023/09/27 08:34:36;;;;;;;23.95;20.45;;;18.30;99.90;;;;;;5045657;28;20048;-71
2023/09/27 08:37:03;;;;;;;28.00;20.48;;;18.70;99.90;;;;;;5064598;28;20115;-71
2023/09/27 08:39:30;;;;;;;22.38;19.67;;;19.20;99.90;;;;;;5013717;28;20056;-72
2023/09/27 08:41:58;;;;;;;26.73;18.42;;;19.80;99.90;;;;;;5062601;28;20064;-71
2023/09/27 08:44:25;;;;;;;23.13;17.80;;;20.20;99.90;;;;;;5013787;28;20091;-70
2023/09/27 08:46:56;;;;;;;23.33;17.20;;;20.00;99.90;;;;;;5059095;28;21429;-71
2023/09/27 08:49:24;;;;;;;24.80;18.00;;;20.50;99.90;;;;;;5016223;28;20728;-71
2023/09/27 08:51:51;;;;;;;21.20;17.48;;;20.90;99.90;;;;;;5057025;28;20632;-71
2023/09/27 08:54:20;;;;;;;21.92;16.45;;;21.20;99.90;;;;;;4990193;28;137595;-71
2023/09/27 08:56:53;;;;;;;19.95;15.90;;;21.30;99.90;;;;;;5059497;28;20423;-70
2023/09/27 08:59:22;;;;;;;23.17;16.27;;;21.30;99.90;;;;;;5003203;28;20064;-72
2023/09/27 09:01:52;;;;;;;22.98;16.40;;;21.30;99.90;;;;;;5054581;28;20053;-72
2023/09/27 09:04:18;;;;;;;20.45;15.50;;;21.60;99.90;;;;;;5006931;28;20120;-71
2023/09/27 09:06:45;;;;;;;21.60;15.10;;;22.20;99.90;;;;;;5057195;28;20049;-72
2023/09/27 09:09:11;;;;;;;24.40;14.45;;;22.50;99.90;;;;;;5026718;28;20048;-72
2023/09/27 09:11:47;;;;;;;19.92;14.88;;;23.00;99.90;;;;;;5061249;28;20056;-72
2023/09/27 09:14:20;;;;;;;25.52;14.48;;;23.50;99.90;;;;;;5020208;28;20079;-72
2023/09/27 09:16:51;;;;;;;19.77;13.48;;;23.30;99.90;;;;;;5054697;28;20430;-71
2023/09/27 09:19:25;;;;;;;22.63;14.30;;;23.20;99.90;;;;;;5009806;28;20041;-72
2023/09/27 09:21:56;;;;;;;18.00;12.02;;;23.10;99.90;;;;;;5055635;28;20049;-73
2023/09/27 09:24:23;;;;;;;19.02;12.55;;;23.40;99.90;;;;;;5003741;28;20411;-71
2023/09/27 09:27:08;;;;;;;19.55;12.32;;;23.80;99.90;;;;;;5060280;28;20063;-73
2023/09/27 09:29:51;;;;;;;19.98;12.23;;;24.30;99.90;;;;;;5018819;28;20048;-71
2023/09/27 09:32:20;;;;;;;20.55;12.05;;;24.80;99.90;;;;;;5063420;28;20103;-72
2023/09/27 09:34:52;;;;;;;18.05;10.77;;;25.00;99.90;;;;;;5001776;28;20089;-72
2023/09/27 09:37:23;;;;;;;17.00;9.48;;;24.90;99.90;;;;;;5061420;28;20053;-72
2023/09/27 09:39:53;;;;;;;16.35;9.43;;;24.70;99.90;;;;;;4997719;28;20048;-71
2023/09/27 09:42:30;;;;;;;;;;;25.10;99.90;;;;;;5061295;28;20056;-72
2023/09/27 09:45:00;;;;;;;16.10;8.25;;;26.10;99.90;;;;;;5008405;28;19920;-72
2023/09/27 09:47:27;;;;;;;;;;;26.00;99.90;;;;;;5057189;28;20062;-72
2023/09/27 09:49:54;;;;;;;14.90;9.00;;;25.80;99.90;;;;;;4995955;28;20407;-72
2023/09/27 09:52:27;;;;;;;18.50;9.38;;;25.30;99.90;;;;;;5061244;28;20055;-71
2023/09/27 09:54:57;;;;;;;17.15;9.70;;;24.80;99.90;;;;;;4978647;28;62178;-72
2023/09/27 09:57:35;;;;;;;13.82;7.97;;;24.30;99.90;;;;;;5053336;28;20057;-72
2023/09/27 10:00:13;;;;;;;13.05;6.93;;;24.10;99.90;;;;;;5014594;28;20040;-72
2023/09/27 10:03:02;;;;;;;14.00;5.80;;;24.80;99.90;;;;;;5059131;28;20057;-72
2023/09/27 10:05:39;;;;;;;14.15;5.85;;;26.30;99.90;;;;;;5017522;28;20036;-73
2023/09/27 10:08:08;;;;;;;13.88;5.78;;;27.50;99.90;;;;;;5020279;27;20056;-73
2023/09/27 10:10:37;;;;;;;13.10;6.07;;;27.80;99.60;;;;;;5062235;28;20055;-72
2023/09/27 10:13:05;;;;;;;14.50;5.78;;;27.20;99.20;;;;;;5022184;28;20077;-69
2023/09/27 10:15:35;;;;;;;13.05;6.00;;;26.70;99.20;;;;;;5045323;28;20041;-71
2023/09/27 10:18:23;;;;;;;15.27;7.20;;;26.20;98.80;;;;;;5012015;28;20989;-70
2023/09/27 10:21:02;;;;;;;13.23;6.90;;;25.70;98.80;;;;;;5056835;28;20585;-71
2023/09/27 10:23:49;;;;;;;14.50;6.70;;;25.40;99.20;;;;;;5007425;28;20057;-71
2023/09/27 10:26:27;;;;;;;14.27;6.07;;;25.30;99.50;;;;;;5045747;28;20529;-71
2023/09/27 10:29:13;;;;;;;15.30;6.38;;;25.30;99.90;;;;;;5010974;28;20056;-72
2023/09/27 10:32:01;;;;;;;12.48;5.80;;;25.20;99.70;;;;;;5052794;28;20080;-71
2023/09/27 10:34:30;;;;;;;11.68;5.28;;;25.10;99.10;;;;;;4996937;28;20095;-71
2023/09/27 10:37:00;;;;;;;12.73;5.38;;;24.90;99.30;;;;;;5054090;28;20076;-71
2023/09/27 10:39:27;;;;;;;13.17;4.97;;;24.70;99.50;;;;;;5017985;28;20048;-71
2023/09/27 10:41:53;;;;;;;11.90;4.90;;;24.50;99.60;;;;;;5055676;28;21534;-70
2023/09/27 10:44:33;;;;;;;14.13;5.22;;;24.40;99.90;;;;;;5009229;28;20124;-71
2023/09/27 10:47:04;;;;;;;12.40;5.53;;;24.50;99.90;;;;;;5054774;28;20048;-71
2023/09/27 10:49:38;;;;;;;13.52;5.45;;;24.50;99.90;;;;;;5010262;28;20412;-70
2023/09/27 10:52:15;;;;;;;13.30;5.20;;;24.60;99.90;;;;;;5055314;28;20687;-71
2023/09/27 10:54:41;;;;;;;11.55;5.20;;;24.70;99.90;;;;;;4991500;28;24481;-71
2023/09/27 10:57:08;;;;;;;12.63;4.80;;;24.80;99.90;;;;;;5054152;28;20059;-71
2023/09/27 10:59:34;;;;;;;13.18;4.82;;;25.00;99.90;;;;;;5010428;28;20045;-71
2023/09/27 11:02:02;;;;;;;11.07;5.18;;;25.10;99.90;;;;;;5055847;28;20048;-73
2023/09/27 11:04:30;;;;;;;11.18;5.32;;;24.90;99.60;;;;;;5021354;28;20044;-72
2023/09/27 11:06:56;;;;;;;13.10;5.40;;;24.70;99.60;;;;;;5056730;28;20078;-70
2023/09/27 11:09:23;;;;;;;10.95;4.82;;;24.50;99.60;;;;;;5031896;28;20052;-72
2023/09/27 11:11:51;;;;;;;11.88;4.75;;;24.50;99.80;;;;;;5058864;28;20450;-71
2023/09/27 11:14:31;;;;;;;11.30;5.30;;;24.40;99.90;;;;;;5004981;28;20044;-70
2023/09/27 11:17:25;;;;;;;11.63;5.45;;;24.40;99.90;;;;;;5057690;28;20049;-71
2023/09/27 11:19:52;;;;;;;13.77;5.38;;;24.30;99.90;;;;;;5007999;28;20075;-71
2023/09/27 11:22:25;;;;;;;11.93;4.88;;;24.30;99.90;;;;;;5057999;28;20064;-70
2023/09/27 11:24:52;;;;;;;10.65;4.85;;;24.40;99.90;;;;;;5014447;28;20431;-72
2023/09/27 11:27:21;;;;;;;9.77;4.30;;;24.40;99.90;;;;;;5056246;28;20052;-71
2023/09/27 11:29:52;;;;;;;13.15;4.53;;;24.30;99.90;;;;;;4994053;28;20056;-71
2023/09/27 11:32:21;;;;;;;;;;;24.30;99.90;;;;;;5054233;28;20057;-71
2023/09/27 11:34:58;;;;;;;11.77;4.55;;;24.30;99.90;;;;;;5032043;28;19920;-72
2023/09/27 11:37:24;;;;;;;10.93;4.30;;;24.30;99.90;;;;;;5050530;28;20052;-72
2023/09/27 11:39:52;;;;;;;11.77;4.50;;;24.30;99.90;;;;;;4997552;28;20051;-69
2023/09/27 11:42:23;;;;;;;13.40;4.35;;;24.30;99.90;;;;;;5057936;28;20060;-71
2023/09/27 11:45:04;;;;;;;11.48;4.53;;;24.50;99.90;;;;;;5010945;28;20041;-72
2023/09/27 11:47:32;;;;;;;9.90;4.70;;;24.70;99.90;;;;;;5061416;28;20055;-72
2023/09/27 11:49:59;;;;;;;11.90;4.43;;;24.70;99.90;;;;;;5021584;28;20071;-71
2023/09/27 11:52:25;;;;;;;11.38;4.70;;;24.60;99.90;;;;;;5065212;28;20115;-72
2023/09/27 11:54:53;;;;;;;12.82;4.80;;;24.60;99.90;;;;;;4990775;28;64354;-71
2023/09/27 11:57:19;;;;;;;11.65;5.03;;;24.50;99.90;;;;;;5067189;28;20044;-72
2023/09/27 11:59:45;;;;;;;12.82;5.82;;;24.40;99.90;;;;;;4996980;28;20044;-71
2023/09/27 12:02:11;;;;;;;13.77;5.38;;;24.30;99.90;;;;;;5064676;28;20052;-71
2023/09/27 12:04:37;;;;;;;12.85;5.25;;;24.20;99.80;;;;;;5014006;28;20045;-71
2023/09/27 12:07:03;;;;;;;11.35;5.65;;;24.10;99.70;;;;;;5060319;28;20535;-71
2023/09/27 12:09:31;;;;;;;11.93;5.40;;;24.10;99.80;;;;;;5027936;28;20055;-71
2023/09/27 12:11:57;;;;;;;10.70;5.40;;;24.30;99.90;;;;;;5061076;28;20810;-71
2023/09/27 12:14:23;;;;;;;13.27;5.47;;;24.50;99.80;;;;;;4996198;28;20053;-71
2023/09/27 12:16:49;;;;;;;14.63;5.70;;;24.90;99.90;;;;;;5053454;28;20055;-72
2023/09/27 12:19:15;;;;;;;11.75;5.43;;;25.30;99.90;;;;;;5014273;28;20040;-71
2023/09/27 12:21:41;;;;;;;12.48;5.15;;;25.60;99.70;;;;;;5058205;28;20051;-71
2023/09/27 12:24:07;;;;;;;10.55;5.28;;;25.80;99.40;;;;;;5006144;28;20049;-71
2023/09/27 12:26:34;;;;;;;12.13;5.35;;;25.90;99.30;;;;;;5047330;28;20052;-71
2023/09/27 12:29:00;;;;;;;11.85;5.95;;;25.90;98.90;;;;;;5016054;28;20040;-71
2023/09/27 12:31:26;;;;;;;11.50;5.45;;;25.90;98.70;;;;;;5057898;28;20061;-71
2023/09/27 12:33:53;;;;;;;13.00;6.18;;;25.80;98.70;;;;;;5017576;28;20056;-71
2023/09/27 12:36:21;;;;;;;11.23;5.57;;;25.60;98.30;;;;;;5056634;28;20064;-72